Time;durP1;ratioP1;P1;durP2;ratioP2;P2;SDS_P1;SDS_P2;PMS_P1;PMS_P2;Temp;Humidity;BMP_temperature;BMP_pressure;BME280_temperature;BME280_humidity;BME280_pressure;Samples;Min_cycle;Max_cycle;Signal;HPM_P1;HPM_P2
2023/02/22 00:01:00;;;;;;;10.63;3.13;;;10.30;99.90;;;;;;5035149;28;20800;-61
2023/02/22 00:03:32;;;;;;;11.00;3.03;;;10.30;99.90;;;;;;5035281;28;20601;-59
2023/02/22 00:06:01;;;;;;;8.30;3.30;;;10.30;99.90;;;;;;5034957;28;20452;-60
2023/02/22 00:08:30;;;;;;;7.30;3.07;;;10.20;99.90;;;;;;5035126;28;20805;-60
2023/02/22 00:10:56;;;;;;;11.77;2.80;;;10.20;99.90;;;;;;5035180;28;20450;-60
2023/02/22 00:13:24;;;;;;;14.63;3.53;;;10.20;99.90;;;;;;5034779;28;21000;-62
2023/02/22 00:15:52;;;;;;;6.07;2.67;;;10.20;99.90;;;;;;5034771;28;21000;-61
2023/02/22 00:18:19;;;;;;;11.10;3.27;;;10.20;99.90;;;;;;5034893;28;20809;-61
2023/02/22 00:20:46;;;;;;;6.43;2.90;;;10.20;99.90;;;;;;5034666;28;20949;-61
2023/02/22 00:23:17;;;;;;;10.43;3.10;;;10.20;99.90;;;;;;5034862;28;20541;-61
2023/02/22 00:25:45;;;;;;;11.90;3.07;;;10.20;99.90;;;;;;5034782;28;20460;-61
2023/02/22 00:28:11;;;;;;;13.30;2.77;;;10.10;99.90;;;;;;5034554;28;20446;-61
2023/02/22 00:30:38;;;;;;;13.97;3.33;;;10.10;99.90;;;;;;5034905;28;20489;-59
2023/02/22 00:33:06;;;;;;;15.83;3.40;;;10.10;99.90;;;;;;5034778;28;20461;-61
2023/02/22 00:35:33;;;;;;;8.40;2.73;;;10.10;99.90;;;;;;5034571;28;20532;-61
2023/02/22 00:38:01;;;;;;;11.23;4.30;;;10.00;99.90;;;;;;5034493;28;20457;-61
2023/02/22 00:40:30;;;;;;;6.70;3.27;;;10.00;99.90;;;;;;5034389;28;20872;-62
2023/02/22 00:42:57;;;;;;;12.80;3.20;;;10.00;99.90;;;;;;5034293;28;20450;-61
2023/02/22 00:45:26;;;;;;;12.33;2.43;;;10.00;99.90;;;;;;5034409;28;20536;-61
2023/02/22 00:47:54;;;;;;;12.10;2.83;;;10.00;99.90;;;;;;5034214;28;20457;-61
2023/02/22 00:50:24;;;;;;;12.50;3.47;;;9.90;99.90;;;;;;5034270;28;20866;-61
2023/02/22 00:52:51;;;;;;;16.20;3.20;;;9.90;99.90;;;;;;5034093;28;20987;-59
2023/02/22 00:55:21;;;;;;;8.63;2.57;;;9.90;99.90;;;;;;5033888;28;20453;-61
2023/02/22 00:57:48;;;;;;;10.83;2.70;;;9.90;99.90;;;;;;5034634;28;20520;-61
2023/02/22 01:00:18;;;;;;;13.53;2.63;;;9.80;99.90;;;;;;5033979;28;21017;-62
2023/02/22 01:02:45;;;;;;;8.33;3.67;;;9.80;99.90;;;;;;5034033;28;20454;-59
2023/02/22 01:05:15;;;;;;;11.50;3.23;;;9.70;99.90;;;;;;5033876;28;20453;-61
2023/02/22 01:07:43;;;;;;;11.07;3.83;;;9.70;99.90;;;;;;5033854;28;20453;-61
2023/02/22 01:10:12;;;;;;;8.47;2.90;;;9.70;99.90;;;;;;5033727;28;20457;-61
2023/02/22 01:12:39;;;;;;;10.90;3.03;;;9.70;99.90;;;;;;5033679;28;20506;-61
2023/02/22 01:15:10;;;;;;;11.87;3.53;;;9.70;99.90;;;;;;5033526;28;20992;-61
2023/02/22 01:17:37;;;;;;;11.90;3.50;;;9.60;99.90;;;;;;5033691;28;20456;-60
2023/02/22 01:20:04;;;;;;;10.83;4.00;;;9.60;99.90;;;;;;5033602;28;20449;-60
2023/02/22 01:22:32;;;;;;;12.57;4.07;;;9.50;99.90;;;;;;5033616;28;20430;-62
2023/02/22 01:25:00;;;;;;;9.80;2.97;;;9.40;99.90;;;;;;5033685;28;20453;-61
2023/02/22 01:27:26;;;;;;;12.07;3.20;;;9.40;99.90;;;;;;5033787;28;20454;-60
2023/02/22 01:29:53;;;;;;;11.87;3.33;;;9.40;99.90;;;;;;5033562;28;20488;-60
2023/02/22 01:32:20;;;;;;;10.00;3.00;;;9.40;99.90;;;;;;5033541;28;20454;-61
2023/02/22 01:34:47;;;;;;;9.80;3.20;;;9.40;99.90;;;;;;5032841;28;20453;-60
2023/02/22 01:37:13;;;;;;;12.47;4.20;;;9.40;99.90;;;;;;5033284;28;20478;-60
2023/02/22 01:39:40;;;;;;;8.00;3.03;;;9.30;99.90;;;;;;5033451;28;20453;-59
2023/02/22 01:42:09;;;;;;;11.93;3.20;;;9.30;99.90;;;;;;5033354;28;20450;-60
2023/02/22 01:44:40;;;;;;;14.93;3.87;;;9.20;99.90;;;;;;5033348;28;20496;-60
2023/02/22 01:47:08;;;;;;;12.70;3.53;;;9.10;99.90;;;;;;5033272;28;20541;-60
2023/02/22 01:49:39;;;;;;;10.30;3.10;;;9.10;99.90;;;;;;5033335;28;20503;-60
2023/02/22 01:52:09;;;;;;;13.03;3.73;;;9.10;99.90;;;;;;5033362;28;20454;-60
2023/02/22 01:54:39;;;;;;;11.53;3.40;;;9.00;99.90;;;;;;5033294;28;20498;-61
2023/02/22 01:57:17;;;;;;;8.87;3.20;;;8.90;99.90;;;;;;5032916;28;21012;-60
2023/02/22 01:59:47;;;;;;;11.27;3.40;;;8.90;99.90;;;;;;5033023;28;20535;-60
2023/02/22 02:02:15;;;;;;;9.87;3.10;;;8.80;99.90;;;;;;5033098;28;20448;-60
2023/02/22 02:04:42;;;;;;;7.37;2.60;;;8.80;99.90;;;;;;5033089;28;20837;-60
2023/02/22 02:07:13;;;;;;;10.80;3.50;;;8.90;99.90;;;;;;5033091;28;20877;-60
2023/02/22 02:09:44;;;;;;;13.70;3.40;;;8.90;99.90;;;;;;5033094;28;20527;-60
2023/02/22 02:12:15;;;;;;;16.07;3.70;;;8.80;99.90;;;;;;5032822;28;20480;-60
2023/02/22 02:14:43;;;;;;;12.70;3.23;;;8.80;99.90;;;;;;5032895;28;20473;-60
2023/02/22 02:17:12;;;;;;;13.17;3.60;;;8.70;99.90;;;;;;5032919;28;20559;-60
2023/02/22 02:19:48;;;;;;;12.73;2.60;;;8.70;99.90;;;;;;5032892;28;20552;-60
2023/02/22 02:22:27;;;;;;;6.90;3.20;;;8.70;99.90;;;;;;5032947;28;20511;-60
2023/02/22 02:25:40;;;;;;;6.47;2.70;;;8.70;99.90;;;;;;5032707;28;20449;-60
2023/02/22 02:28:41;;;;;;;13.13;3.70;;;8.70;99.90;;;;;;5032902;28;20865;-60
2023/02/22 02:31:44;;;;;;;9.70;3.53;;;8.60;99.90;;;;;;5032691;28;20453;-60
2023/02/22 02:34:20;;;;;;;14.93;3.27;;;8.50;99.90;;;;;;5019970;28;20867;-60
2023/02/22 02:36:58;;;;;;;8.30;2.53;;;8.50;99.90;;;;;;5032667;28;20495;-60
2023/02/22 02:39:29;;;;;;;15.60;2.73;;;8.40;99.90;;;;;;5032634;28;20945;-60
2023/02/22 02:41:59;;;;;;;12.30;3.30;;;8.40;99.90;;;;;;5032551;28;20453;-60
2023/02/22 02:44:31;;;;;;;9.27;2.60;;;8.40;99.90;;;;;;5032762;28;20445;-60
2023/02/22 02:47:01;;;;;;;7.33;3.03;;;8.30;99.90;;;;;;5036190;28;20824;-61
2023/02/22 02:49:35;;;;;;;8.70;2.80;;;8.30;99.90;;;;;;5036653;28;20456;-61
2023/02/22 02:52:04;;;;;;;13.40;3.20;;;8.30;99.90;;;;;;5036445;28;20449;-61
2023/02/22 02:54:33;;;;;;;11.20;2.87;;;8.20;99.90;;;;;;5036478;28;20821;-61
2023/02/22 02:57:00;;;;;;;8.03;2.70;;;8.20;99.90;;;;;;5036404;28;20508;-61
2023/02/22 02:59:28;;;;;;;12.20;3.70;;;8.20;99.90;;;;;;5036222;28;20454;-60
2023/02/22 03:02:13;;;;;;;14.13;3.43;;;8.10;99.90;;;;;;5036324;28;20540;-60
2023/02/22 03:05:02;;;;;;;14.97;3.60;;;8.10;99.90;;;;;;5036264;28;20496;-60
2023/02/22 03:07:41;;;;;;;11.30;3.57;;;8.00;99.90;;;;;;5036283;28;20845;-60
2023/02/22 03:10:20;;;;;;;9.47;3.00;;;7.90;99.90;;;;;;5036346;28;20933;-60
2023/02/22 03:12:53;;;;;;;8.80;3.77;;;7.90;99.90;;;;;;5035908;28;21020;-60
2023/02/22 03:15:32;;;;;;;17.40;3.77;;;8.00;99.90;;;;;;5036303;28;20541;-61
2023/02/22 03:18:06;;;;;;;12.20;3.00;;;8.00;99.90;;;;;;5036085;28;20567;-59
2023/02/22 03:20:42;;;;;;;11.67;3.10;;;8.00;99.90;;;;;;5036069;28;20817;-60
2023/02/22 03:23:19;;;;;;;8.20;3.07;;;8.00;99.90;;;;;;5035841;28;20452;-60
2023/02/22 03:25:51;;;;;;;7.90;2.70;;;8.00;99.90;;;;;;5035977;28;20445;-60
2023/02/22 03:28:22;;;;;;;7.13;2.97;;;8.00;99.90;;;;;;5035726;28;20944;-59
2023/02/22 03:30:54;;;;;;;9.63;4.20;;;8.00;99.90;;;;;;5035806;28;20524;-60
2023/02/22 03:33:32;;;;;;;8.73;3.00;;;8.00;99.90;;;;;;5035768;28;20877;-60
2023/02/22 03:36:07;;;;;;;11.97;4.43;;;7.90;99.90;;;;;;5035694;28;20473;-60
2023/02/22 03:38:38;;;;;;;8.57;2.90;;;7.80;99.90;;;;;;5035573;28;20485;-60
2023/02/22 03:41:07;;;;;;;8.20;3.20;;;7.90;99.90;;;;;;5035660;28;20450;-60
2023/02/22 03:43:38;;;;;;;11.97;3.23;;;7.90;99.90;;;;;;5035429;28;20941;-60
2023/02/22 03:46:07;;;;;;;7.77;2.63;;;7.90;99.90;;;;;;5035599;28;20480;-60
2023/02/22 03:48:42;;;;;;;11.17;3.17;;;7.80;99.90;;;;;;5035323;28;20457;-60
2023/02/22 03:51:13;;;;;;;15.67;4.20;;;7.80;99.90;;;;;;5035455;28;20453;-60
2023/02/22 03:53:41;;;;;;;14.43;3.17;;;7.80;99.90;;;;;;5035769;28;20460;-60
2023/02/22 03:56:10;;;;;;;11.00;2.97;;;7.70;99.90;;;;;;5034967;28;20550;-60
2023/02/22 03:58:42;;;;;;;13.13;4.07;;;7.70;99.90;;;;;;5035072;28;20445;-60
2023/02/22 04:01:09;;;;;;;10.27;3.17;;;7.70;99.90;;;;;;5035331;28;20450;-60
2023/02/22 04:03:36;;;;;;;11.97;3.50;;;7.70;99.90;;;;;;5035196;28;20454;-60
2023/02/22 04:06:03;;;;;;;9.47;3.30;;;7.70;99.90;;;;;;5035241;28;20448;-59
2023/02/22 04:08:31;;;;;;;11.10;3.20;;;7.70;99.90;;;;;;5035267;28;20532;-60
2023/02/22 04:10:58;;;;;;;10.80;3.20;;;7.70;99.90;;;;;;5034927;28;20450;-60
2023/02/22 04:13:26;;;;;;;10.73;4.63;;;7.60;99.90;;;;;;5035170;28;20527;-59
2023/02/22 04:15:52;;;;;;;17.30;3.70;;;7.60;99.90;;;;;;5034758;28;20457;-59
2023/02/22 04:18:19;;;;;;;9.33;2.43;;;7.50;99.90;;;;;;5034905;28;20488;-60
2023/02/22 04:20:46;;;;;;;10.60;3.67;;;7.60;99.90;;;;;;5034898;28;21008;-60
2023/02/22 04:23:13;;;;;;;10.20;3.60;;;7.60;99.90;;;;;;5034790;28;20477;-60
2023/02/22 04:25:41;;;;;;;11.80;3.37;;;7.60;99.90;;;;;;5034637;28;20461;-60
2023/02/22 04:28:08;;;;;;;12.03;2.97;;;7.70;99.90;;;;;;5034826;28;20536;-60
2023/02/22 04:30:34;;;;;;;16.67;3.00;;;7.70;99.90;;;;;;5034882;28;20473;-60
2023/02/22 04:33:01;;;;;;;12.27;2.97;;;7.60;99.90;;;;;;5034502;28;20511;-60
2023/02/22 04:35:28;;;;;;;11.63;3.60;;;7.60;99.90;;;;;;5034629;28;20457;-60
2023/02/22 04:37:54;;;;;;;12.63;3.50;;;7.50;99.90;;;;;;5034496;28;20889;-60
2023/02/22 04:40:21;;;;;;;10.63;3.30;;;7.50;99.90;;;;;;5034283;28;20456;-60
2023/02/22 04:42:49;;;;;;;9.43;3.00;;;7.40;99.90;;;;;;5034553;28;20458;-60
2023/02/22 04:45:16;;;;;;;9.20;3.40;;;7.40;99.90;;;;;;5034387;28;20481;-60
2023/02/22 04:47:42;;;;;;;14.03;3.53;;;7.40;99.90;;;;;;5034320;28;20540;-60
2023/02/22 04:50:12;;;;;;;12.30;3.20;;;7.50;99.90;;;;;;5034197;28;20508;-60
2023/02/22 04:52:38;;;;;;;19.50;3.63;;;7.50;99.90;;;;;;5034210;28;20579;-59
2023/02/22 04:55:06;;;;;;;6.47;3.53;;;7.60;99.90;;;;;;5034321;28;20507;-59
2023/02/22 04:57:33;;;;;;;7.30;4.17;;;7.60;99.90;;;;;;5033843;28;21084;-60
2023/02/22 05:00:01;;;;;;;16.50;3.50;;;7.60;99.90;;;;;;5034366;28;20541;-62
2023/02/22 05:02:28;;;;;;;10.07;3.50;;;7.50;99.90;;;;;;5033919;28;20460;-61
2023/02/22 05:04:54;;;;;;;12.20;4.47;;;7.40;99.90;;;;;;5033995;28;20503;-60
2023/02/22 05:07:21;;;;;;;18.50;6.33;;;7.30;99.90;;;;;;5033572;28;20506;-60
2023/02/22 05:09:48;;;;;;;7.40;3.53;;;7.30;99.90;;;;;;5033478;28;20481;-60
2023/02/22 05:12:15;;;;;;;8.10;3.40;;;7.30;99.90;;;;;;5033898;28;20481;-60
2023/02/22 05:14:41;;;;;;;9.80;3.47;;;7.30;99.90;;;;;;5033781;28;20452;-60
2023/02/22 05:17:09;;;;;;;14.47;3.37;;;7.40;99.90;;;;;;5033477;28;20485;-60
2023/02/22 05:19:36;;;;;;;14.80;4.40;;;7.40;99.90;;;;;;5033646;28;20861;-59
2023/02/22 05:22:04;;;;;;;11.53;3.70;;;7.40;99.90;;;;;;5033580;28;20466;-62
2023/02/22 05:24:31;;;;;;;14.07;4.10;;;7.30;99.90;;;;;;5033685;28;20859;-60
2023/02/22 05:26:57;;;;;;;10.97;3.13;;;7.30;99.90;;;;;;5033629;28;20454;-60
2023/02/22 05:29:24;;;;;;;12.33;2.53;;;7.30;99.90;;;;;;5033579;28;20457;-61
2023/02/22 05:31:51;;;;;;;13.67;3.63;;;7.20;99.90;;;;;;5033646;28;20466;-61
2023/02/22 05:34:18;;;;;;;7.00;2.87;;;7.20;99.90;;;;;;5033370;28;20483;-61
2023/02/22 05:36:46;;;;;;;11.43;3.37;;;7.20;99.90;;;;;;5033470;28;20538;-61
2023/02/22 05:39:12;;;;;;;14.00;3.40;;;7.20;99.90;;;;;;5033254;28;20540;-61
2023/02/22 05:41:39;;;;;;;11.80;3.30;;;7.20;99.90;;;;;;5033385;28;20538;-61
2023/02/22 05:44:06;;;;;;;7.10;3.20;;;7.20;99.90;;;;;;5033299;28;20864;-61
2023/02/22 05:46:32;;;;;;;12.60;4.07;;;7.20;99.90;;;;;;5033260;28;20449;-61
2023/02/22 05:48:59;;;;;;;20.40;3.50;;;7.00;99.90;;;;;;5033071;28;20533;-62
2023/02/22 05:51:27;;;;;;;10.27;3.73;;;7.10;99.90;;;;;;5033020;28;20959;-59
2023/02/22 05:53:54;;;;;;;10.80;4.10;;;6.90;99.90;;;;;;5033199;28;20456;-59
2023/02/22 05:56:22;;;;;;;13.33;3.57;;;6.90;99.90;;;;;;5032933;28;20454;-60
2023/02/22 05:58:49;;;;;;;7.20;3.30;;;6.90;99.90;;;;;;5032969;28;20517;-62
2023/02/22 06:01:16;;;;;;;10.03;2.90;;;6.90;99.90;;;;;;5033060;28;20462;-63
2023/02/22 06:03:43;;;;;;;9.70;3.20;;;6.90;99.90;;;;;;5032843;28;20460;-60
2023/02/22 06:06:09;;;;;;;15.47;3.53;;;6.80;99.90;;;;;;5033083;28;20506;-60
2023/02/22 06:08:37;;;;;;;13.20;3.80;;;6.80;99.90;;;;;;5032932;28;20884;-61
2023/02/22 06:11:04;;;;;;;8.67;2.90;;;6.80;99.90;;;;;;5032572;28;21022;-61
2023/02/22 06:13:31;;;;;;;7.17;3.47;;;6.80;99.90;;;;;;5032865;28;20543;-60
2023/02/22 06:15:58;;;;;;;15.17;4.53;;;6.80;99.90;;;;;;5032750;28;20456;-60
2023/02/22 06:18:29;;;;;;;6.17;2.70;;;6.90;99.90;;;;;;5032923;28;20841;-60
2023/02/22 06:20:56;;;;;;;11.03;3.43;;;7.00;99.90;;;;;;5038853;28;20456;-62
2023/02/22 06:23:22;;;;;;;10.70;2.90;;;6.90;99.90;;;;;;5039472;28;20452;-59
2023/02/22 06:25:50;;;;;;;9.37;2.40;;;7.00;99.90;;;;;;5039690;28;20459;-60
2023/02/22 06:28:17;;;;;;;14.13;4.30;;;7.00;99.90;;;;;;5039300;28;20453;-59
2023/02/22 06:30:44;;;;;;;9.43;3.97;;;7.00;99.90;;;;;;5039072;28;20457;-60
2023/02/22 06:33:11;;;;;;;17.10;5.63;;;6.90;99.90;;;;;;5039351;28;20534;-60
2023/02/22 06:35:38;;;;;;;9.00;4.47;;;6.80;99.90;;;;;;5039113;28;20483;-60
2023/02/22 06:38:04;;;;;;;9.10;3.20;;;6.80;99.90;;;;;;5039160;28;20516;-60
2023/02/22 06:40:31;;;;;;;15.97;3.57;;;6.80;99.90;;;;;;5039208;28;20510;-60
2023/02/22 06:42:59;;;;;;;23.13;4.90;;;6.90;99.90;;;;;;5039046;28;20515;-60
2023/02/22 06:45:26;;;;;;;12.97;4.43;;;7.00;99.90;;;;;;5039088;28;20490;-61
2023/02/22 06:47:54;;;;;;;10.80;4.23;;;7.20;99.90;;;;;;5039170;28;20478;-62
2023/02/22 06:50:23;;;;;;;9.43;3.80;;;7.20;99.90;;;;;;5039102;28;20457;-62
2023/02/22 06:52:50;;;;;;;7.77;3.70;;;7.40;99.90;;;;;;5039064;28;20534;-62
2023/02/22 06:55:18;;;;;;;14.10;3.93;;;7.50;99.90;;;;;;5039056;28;20496;-61
2023/02/22 06:57:44;;;;;;;14.50;4.43;;;7.50;99.90;;;;;;5038709;28;20489;-60
2023/02/22 07:00:15;;;;;;;15.93;4.90;;;7.50;99.90;;;;;;5039059;28;20551;-60
2023/02/22 07:02:43;;;;;;;20.03;4.37;;;7.60;99.90;;;;;;5039145;28;20561;-60
2023/02/22 07:05:11;;;;;;;11.83;3.40;;;7.70;99.90;;;;;;5038988;28;20454;-61
2023/02/22 07:07:38;;;;;;;11.60;4.20;;;7.70;99.90;;;;;;5038974;28;20479;-60
2023/02/22 07:10:07;;;;;;;12.53;4.77;;;7.70;99.90;;;;;;5038776;28;20536;-60
2023/02/22 07:12:33;;;;;;;17.87;5.97;;;7.60;99.90;;;;;;5038681;28;20833;-59
2023/02/22 07:15:00;;;;;;;12.67;4.90;;;7.70;99.90;;;;;;5038835;28;20445;-59
2023/02/22 07:17:27;;;;;;;18.37;6.27;;;7.70;99.90;;;;;;5038609;28;21051;-61
2023/02/22 07:19:54;;;;;;;23.67;6.20;;;7.80;99.90;;;;;;5038632;28;20540;-60
2023/02/22 07:22:20;;;;;;;14.40;5.67;;;7.80;99.90;;;;;;5038798;28;20547;-60
2023/02/22 07:24:47;;;;;;;21.10;6.10;;;7.90;99.90;;;;;;5038715;28;20547;-61
2023/02/22 07:27:14;;;;;;;14.83;6.00;;;8.00;99.90;;;;;;5038870;28;20460;-61
2023/02/22 07:29:42;;;;;;;14.13;5.37;;;8.10;99.90;;;;;;5038914;28;20539;-61
2023/02/22 07:32:09;;;;;;;11.33;5.23;;;8.20;99.90;;;;;;5035508;28;20569;-62
2023/02/22 07:34:37;;;;;;;13.20;4.03;;;8.30;99.90;;;;;;5035621;28;20468;-61
2023/02/22 07:37:03;;;;;;;14.77;4.63;;;8.30;99.90;;;;;;5035574;28;20449;-62
2023/02/22 07:39:30;;;;;;;12.10;5.00;;;8.30;99.90;;;;;;5035249;28;20488;-61
2023/02/22 07:41:58;;;;;;;13.17;5.87;;;8.30;99.90;;;;;;5035322;28;20461;-61
2023/02/22 07:44:24;;;;;;;12.47;4.27;;;8.30;99.90;;;;;;5035612;28;20454;-60
2023/02/22 07:46:51;;;;;;;14.60;4.33;;;8.40;99.90;;;;;;5035320;28;20449;-61
2023/02/22 07:49:18;;;;;;;9.07;4.00;;;8.50;99.90;;;;;;5035487;28;20458;-60
2023/02/22 07:51:45;;;;;;;11.07;3.80;;;8.60;99.90;;;;;;5035663;28;20463;-61
2023/02/22 07:54:12;;;;;;;9.77;3.50;;;8.70;99.90;;;;;;5035045;28;20557;-61
2023/02/22 07:56:44;;;;;;;19.00;4.80;;;8.80;99.90;;;;;;5035249;28;20456;-61
2023/02/22 07:59:11;;;;;;;12.10;4.37;;;8.80;99.90;;;;;;5035121;28;20985;-61
2023/02/22 08:01:37;;;;;;;15.43;4.90;;;8.90;99.90;;;;;;5035165;28;20485;-61
2023/02/22 08:04:04;;;;;;;15.77;4.07;;;9.00;99.90;;;;;;5034912;28;21044;-60
2023/02/22 08:06:31;;;;;;;12.50;4.13;;;8.90;99.90;;;;;;5035005;28;20452;-60
2023/02/22 08:08:58;;;;;;;14.63;4.80;;;9.00;99.90;;;;;;5035143;28;20456;-61
2023/02/22 08:11:26;;;;;;;18.70;4.90;;;9.00;99.90;;;;;;5034628;28;20828;-61
2023/02/22 08:13:52;;;;;;;11.70;4.40;;;9.10;99.90;;;;;;5035366;28;20488;-60
2023/02/22 08:16:19;;;;;;;16.00;4.83;;;9.20;99.90;;;;;;5034871;28;20441;-60
2023/02/22 08:18:45;;;;;;;11.20;3.93;;;9.20;99.90;;;;;;5047632;28;21082;-61
2023/02/22 08:21:12;;;;;;;14.70;5.13;;;9.30;99.90;;;;;;5056816;28;20804;-61
2023/02/22 08:23:38;;;;;;;14.77;6.77;;;9.40;99.90;;;;;;5054289;28;20491;-62
2023/02/22 08:26:09;;;;;;;11.77;5.67;;;9.40;99.90;;;;;;5065654;28;20448;-63
2023/02/22 08:28:35;;;;;;;13.23;4.97;;;9.50;99.90;;;;;;5074403;28;20538;-62
2023/02/22 08:31:02;;;;;;;18.13;3.90;;;9.60;99.90;;;;;;5074420;28;20815;-61
2023/02/22 08:33:28;;;;;;;16.63;5.50;;;9.60;99.90;;;;;;5074115;28;20456;-61
2023/02/22 08:35:55;;;;;;;12.90;6.00;;;9.70;99.90;;;;;;5074283;28;20448;-63
2023/02/22 08:38:24;;;;;;;14.93;4.00;;;9.70;99.90;;;;;;5074161;28;20490;-60
2023/02/22 08:40:51;;;;;;;10.23;3.30;;;9.80;99.90;;;;;;5074103;28;20555;-64
2023/02/22 08:43:20;;;;;;;13.73;3.70;;;9.70;99.90;;;;;;5072973;28;20517;-65
2023/02/22 08:45:47;;;;;;;20.20;5.13;;;9.70;99.90;;;;;;5073982;28;20538;-63
2023/02/22 08:48:14;;;;;;;17.00;4.63;;;9.50;99.90;;;;;;5074188;28;20567;-60
2023/02/22 08:50:41;;;;;;;15.20;4.13;;;9.40;99.90;;;;;;5072648;28;20448;-61
2023/02/22 08:53:09;;;;;;;12.20;4.27;;;9.30;99.90;;;;;;5054030;28;20841;-64
2023/02/22 08:55:37;;;;;;;10.97;3.70;;;9.20;99.90;;;;;;5054074;28;20538;-59
2023/02/22 08:58:08;;;;;;;12.77;3.80;;;9.20;99.90;;;;;;5053917;28;20472;-61
2023/02/22 09:00:37;;;;;;;10.93;4.07;;;9.20;99.90;;;;;;5054253;28;20743;-63
2023/02/22 09:03:05;;;;;;;13.33;4.73;;;9.10;99.90;;;;;;5053845;28;20452;-62
2023/02/22 09:05:31;;;;;;;12.83;4.07;;;9.10;99.90;;;;;;5053729;28;20451;-65
2023/02/22 09:07:58;;;;;;;15.30;4.40;;;9.20;99.90;;;;;;5053698;28;20458;-60
2023/02/22 09:10:28;;;;;;;20.20;4.70;;;9.10;99.90;;;;;;5053727;28;20449;-60
2023/02/22 09:12:55;;;;;;;7.80;3.93;;;9.10;99.90;;;;;;5053436;28;20713;-60
2023/02/22 09:15:23;;;;;;;18.53;5.33;;;9.20;99.90;;;;;;5053424;28;20544;-60
2023/02/22 09:17:50;;;;;;;9.47;3.80;;;9.20;99.90;;;;;;5053640;28;20448;-64
2023/02/22 09:20:19;;;;;;;10.30;4.03;;;9.20;99.90;;;;;;5053428;28;20544;-62
2023/02/22 09:22:46;;;;;;;22.20;4.90;;;9.10;99.90;;;;;;5053391;28;20823;-59
2023/02/22 09:25:13;;;;;;;14.43;4.03;;;9.00;99.90;;;;;;5053273;28;20459;-63
2023/02/22 09:27:42;;;;;;;11.97;4.20;;;8.90;99.90;;;;;;5053018;28;20462;-64
2023/02/22 09:30:15;;;;;;;20.70;4.07;;;8.90;99.90;;;;;;5053622;28;20778;-62
2023/02/22 09:32:42;;;;;;;25.27;4.40;;;9.00;99.90;;;;;;5060502;28;20530;-62
2023/02/22 09:35:10;;;;;;;20.90;5.60;;;9.00;99.90;;;;;;5073190;28;20454;-62
2023/02/22 09:37:36;;;;;;;12.33;4.27;;;9.10;99.90;;;;;;5073042;28;20444;-62
2023/02/22 09:40:08;;;;;;;15.53;4.00;;;9.30;99.90;;;;;;5072889;28;20490;-66
2023/02/22 09:42:44;;;;;;;14.93;4.37;;;9.30;99.90;;;;;;5073084;28;20447;-62
2023/02/22 09:45:17;;;;;;;21.00;5.33;;;9.40;99.90;;;;;;5073158;28;20470;-63
2023/02/22 09:47:47;;;;;;;14.03;5.17;;;9.40;99.90;;;;;;5073125;28;20454;-65
2023/02/22 09:50:21;;;;;;;9.43;4.40;;;9.50;99.90;;;;;;5072926;28;20456;-61
2023/02/22 09:52:55;;;;;;;11.10;3.60;;;9.60;99.90;;;;;;5072260;28;20970;-62
2023/02/22 09:55:32;;;;;;;14.17;3.67;;;9.60;99.90;;;;;;5072560;28;20485;-61
2023/02/22 09:58:02;;;;;;;15.77;3.80;;;9.60;99.90;;;;;;5073096;28;20444;-62
2023/02/22 10:00:32;;;;;;;10.53;4.00;;;9.60;99.90;;;;;;5072896;28;20546;-62
2023/02/22 10:03:15;;;;;;;9.13;3.60;;;9.70;99.90;;;;;;5072885;28;20455;-62
2023/02/22 10:05:45;;;;;;;12.03;3.63;;;9.70;99.90;;;;;;5072826;28;20448;-61
2023/02/22 10:08:14;;;;;;;14.77;4.87;;;9.70;99.90;;;;;;5072845;28;20535;-60
2023/02/22 10:10:44;;;;;;;14.33;4.97;;;9.90;99.90;;;;;;5072640;28;20526;-60
2023/02/22 10:13:20;;;;;;;16.43;4.13;;;10.00;99.90;;;;;;5072407;28;21016;-63
2023/02/22 10:15:54;;;;;;;17.67;4.20;;;10.20;99.90;;;;;;5072668;28;20785;-60
2023/02/22 10:18:49;;;;;;;11.27;3.20;;;10.20;99.90;;;;;;5072636;28;20490;-64
2023/02/22 10:21:29;;;;;;;12.73;3.63;;;10.10;99.90;;;;;;5072799;28;20535;-63
2023/02/22 10:24:04;;;;;;;15.20;3.37;;;10.00;99.90;;;;;;5072524;28;20455;-63
2023/02/22 10:26:35;;;;;;;15.43;4.30;;;10.00;99.90;;;;;;5072746;28;20858;-65
2023/02/22 10:29:07;;;;;;;19.40;3.77;;;10.00;99.90;;;;;;5072815;28;20924;-67
2023/02/22 10:31:40;;;;;;;11.77;3.67;;;10.00;99.90;;;;;;5072514;28;20886;-61
2023/02/22 10:34:12;;;;;;;12.80;4.23;;;10.00;99.90;;;;;;5072536;28;21013;-62
2023/02/22 10:36:42;;;;;;;10.10;4.00;;;9.90;99.90;;;;;;5072273;28;20458;-63
2023/02/22 10:39:19;;;;;;;12.83;3.70;;;10.00;99.90;;;;;;5058629;28;20840;-64
2023/02/22 10:41:51;;;;;;;16.93;3.60;;;10.10;99.90;;;;;;5052503;28;20460;-62
2023/02/22 10:44:17;;;;;;;10.30;3.90;;;10.30;99.90;;;;;;5051898;28;20448;-65
2023/02/22 10:46:45;;;;;;;9.03;2.83;;;10.50;99.90;;;;;;5051961;28;20484;-62
2023/02/22 10:49:18;;;;;;;10.80;3.90;;;10.60;99.90;;;;;;5052238;28;20536;-64
2023/02/22 10:51:46;;;;;;;14.97;3.60;;;10.60;99.90;;;;;;5052109;28;20964;-61
2023/02/22 10:54:25;;;;;;;10.87;3.37;;;10.60;99.90;;;;;;5052355;28;20451;-61
2023/02/22 10:56:54;;;;;;;14.67;4.03;;;10.50;99.90;;;;;;5052244;28;20804;-63
2023/02/22 10:59:31;;;;;;;14.60;4.27;;;10.60;99.90;;;;;;5051998;28;20475;-63
2023/02/22 11:01:58;;;;;;;14.67;3.30;;;10.70;99.90;;;;;;5052159;28;20459;-62
2023/02/22 11:04:25;;;;;;;22.93;3.73;;;10.70;99.90;;;;;;5052231;28;20488;-62
2023/02/22 11:07:09;;;;;;;13.77;4.10;;;10.60;99.90;;;;;;5053950;28;20444;-61
2023/02/22 11:09:49;;;;;;;17.23;4.37;;;10.60;99.90;;;;;;5056271;28;20491;-60
2023/02/22 11:12:18;;;;;;;17.40;3.57;;;10.70;99.90;;;;;;5055839;28;20476;-61
2023/02/22 11:14:45;;;;;;;21.10;3.70;;;10.80;99.90;;;;;;5055935;28;20449;-63
2023/02/22 11:17:22;;;;;;;6.03;2.73;;;10.80;99.90;;;;;;5055981;28;20577;-62
2023/02/22 11:19:50;;;;;;;13.77;3.88;;;11.00;99.90;;;;;;5053164;28;20466;-62
2023/02/22 11:22:24;;;;;;;20.67;3.90;;;11.10;99.90;;;;;;5055347;28;20208;-62
2023/02/22 11:24:54;;;;;;;15.90;3.90;;;11.30;99.90;;;;;;5054643;28;21006;-58
2023/02/22 11:27:30;;;;;;;10.40;3.07;;;11.40;99.90;;;;;;5055905;28;20266;-57
2023/02/22 11:30:08;;;;;;;12.70;3.90;;;11.30;99.90;;;;;;5055824;28;20500;-57
2023/02/22 11:32:35;;;;;;;11.83;2.80;;;11.20;99.90;;;;;;5055577;28;20545;-61
2023/02/22 11:35:18;;;;;;;11.97;2.77;;;11.20;99.90;;;;;;5055233;28;20456;-61
2023/02/22 11:37:46;;;;;;;9.10;3.13;;;11.20;99.90;;;;;;5055530;28;20547;-59
2023/02/22 11:40:18;;;;;;;15.10;3.63;;;11.20;99.90;;;;;;5055371;28;20487;-64
2023/02/22 11:42:45;;;;;;;13.23;3.00;;;11.30;99.90;;;;;;5055475;28;20535;-62
2023/02/22 11:45:16;;;;;;;15.47;3.20;;;11.30;99.90;;;;;;5055269;28;20644;-65
2023/02/22 11:47:51;;;;;;;13.70;3.70;;;11.40;99.90;;;;;;5055377;28;20450;-67
2023/02/22 11:50:26;;;;;;;17.77;3.47;;;11.50;99.90;;;;;;5055275;28;20859;-61
2023/02/22 11:53:08;;;;;;;14.73;4.03;;;11.50;99.90;;;;;;5055141;28;20454;-60
2023/02/22 11:55:44;;;;;;;12.23;3.17;;;11.70;99.90;;;;;;5054974;28;20488;-61
2023/02/22 11:58:26;;;;;;;8.10;3.10;;;11.70;99.90;;;;;;5055282;28;20444;-61
2023/02/22 12:00:58;;;;;;;11.10;3.03;;;11.70;99.90;;;;;;5054802;28;20973;-62
2023/02/22 12:03:40;;;;;;;15.23;3.03;;;11.80;99.90;;;;;;5054758;28;20804;-63
2023/02/22 12:06:31;;;;;;;7.43;2.57;;;11.80;99.90;;;;;;5054869;28;20498;-60
2023/02/22 12:09:12;;;;;;;12.37;3.47;;;11.80;99.90;;;;;;5062149;28;20450;-61
2023/02/22 12:11:47;;;;;;;11.93;4.07;;;11.80;99.90;;;;;;5074826;28;20468;-62
2023/02/22 12:14:24;;;;;;;10.53;3.30;;;11.80;99.90;;;;;;5074719;28;20447;-62
2023/02/22 12:17:12;;;;;;;6.27;1.90;;;11.60;99.90;;;;;;5074573;28;20455;-62
2023/02/22 12:19:42;;;;;;;11.90;2.60;;;11.40;99.90;;;;;;5074478;28;20880;-61
2023/02/22 12:22:15;;;;;;;10.00;2.60;;;11.20;99.90;;;;;;5074620;28;20455;-63
2023/02/22 12:24:48;;;;;;;14.60;2.33;;;11.20;99.90;;;;;;5074650;28;20573;-59
2023/02/22 12:27:19;;;;;;;20.87;3.80;;;11.20;99.90;;;;;;5074399;28;20501;-61
2023/02/22 12:29:50;;;;;;;12.27;2.80;;;11.30;99.90;;;;;;5074417;28;20555;-61
2023/02/22 12:32:27;;;;;;;10.57;2.33;;;11.40;99.90;;;;;;5074347;28;20838;-60
2023/02/22 12:34:58;;;;;;;8.53;2.70;;;11.30;99.90;;;;;;5074332;28;20484;-60
2023/02/22 12:37:27;;;;;;;8.53;2.70;;;11.30;99.90;;;;;;5074264;28;20447;-62
2023/02/22 12:40:05;;;;;;;12.20;2.60;;;11.30;99.90;;;;;;5074168;28;20571;-62
2023/02/22 12:42:48;;;;;;;5.87;2.03;;;11.40;99.90;;;;;;5074183;28;20512;-63
2023/02/22 12:45:25;;;;;;;9.33;2.40;;;11.20;99.90;;;;;;5074197;28;20717;-58
2023/02/22 12:47:59;;;;;;;10.93;2.77;;;11.20;99.90;;;;;;5074053;28;20443;-60
2023/02/22 12:50:33;;;;;;;15.13;5.80;;;11.20;99.90;;;;;;5074256;28;20457;-60
2023/02/22 12:53:04;;;;;;;8.97;2.50;;;11.40;99.90;;;;;;5074116;28;20549;-66
2023/02/22 12:55:38;;;;;;;6.80;2.13;;;11.50;99.90;;;;;;5073898;28;20542;-59
2023/02/22 12:58:13;;;;;;;11.90;3.30;;;11.50;99.90;;;;;;5073769;28;20478;-62
2023/02/22 13:00:44;;;;;;;8.27;2.63;;;11.50;99.90;;;;;;5073669;28;20486;-59